createdAt,value
2018-12-11T00:01:38.583Z,101705.06
2018-12-11T00:04:09.337Z,101706.41
2018-12-11T00:06:38.646Z,101706.41
2018-12-11T00:09:07.534Z,101705.12
2018-12-11T00:11:36.631Z,101704.30
2018-12-11T00:14:05.734Z,101703.97
2018-12-11T00:16:34.692Z,101705.35
2018-12-11T00:19:03.925Z,101701.53
2018-12-11T00:21:33.211Z,101697.27
2018-12-11T00:24:02.322Z,101702.09
2018-12-11T00:26:31.282Z,101703.40
2018-12-11T00:29:00.092Z,101709.09
2018-12-11T00:31:29.071Z,101703.97
2018-12-11T00:33:57.793Z,101700.09
2018-12-11T00:36:26.590Z,101697.13
2018-12-11T00:38:55.371Z,101707.88
2018-12-11T00:41:24.110Z,101693.67
2018-12-11T00:43:54.068Z,101692.81
2018-12-11T00:46:23.135Z,101693.68
2018-12-11T00:48:52.125Z,101691.56
2018-12-11T00:51:21.047Z,101699.33
2018-12-11T00:53:49.994Z,101696.69
2018-12-11T00:56:18.963Z,101692.72
2018-12-11T00:58:47.751Z,101699.61
2018-12-11T01:01:16.631Z,101703.48
2018-12-11T01:03:45.457Z,101706.93
2018-12-11T01:06:14.670Z,101694.87
2018-12-11T01:08:43.761Z,101704.36
2018-12-11T01:11:12.540Z,101701.42
2018-12-11T01:13:41.323Z,101703.11
2018-12-11T01:16:10.339Z,101699.70
2018-12-11T01:18:39.086Z,101703.11
2018-12-11T01:21:08.190Z,101699.66
2018-12-11T01:23:36.911Z,101701.81
2018-12-11T01:26:05.787Z,101706.17
2018-12-11T01:28:34.498Z,101705.30
2018-12-11T01:31:03.769Z,101703.59
2018-12-11T01:33:32.658Z,101716.50
2018-12-11T01:36:01.502Z,101701.00
2018-12-11T01:38:30.299Z,101704.83
2018-12-11T01:41:00.195Z,101705.65
2018-12-11T01:43:28.995Z,101714.69
2018-12-11T01:45:57.861Z,101721.14
2018-12-11T01:48:27.995Z,101724.12
2018-12-11T01:51:03.399Z,101724.55
2018-12-11T01:53:32.172Z,101726.27
2018-12-11T01:56:01.058Z,101721.48
2018-12-11T01:58:30.204Z,101716.70
2018-12-11T02:00:59.359Z,101721.81
2018-12-11T02:03:28.559Z,101715.74
2018-12-11T02:05:57.346Z,101709.70
2018-12-11T02:08:26.210Z,101715.70
2018-12-11T02:10:56.446Z,101711.83
2018-12-11T02:13:25.421Z,101719.48
2018-12-11T02:15:55.527Z,101721.15
2018-12-11T02:18:24.266Z,101712.88
2018-12-11T02:20:53.046Z,101718.81
2018-12-11T02:23:22.123Z,101707.13
2018-12-11T02:25:51.126Z,101711.87
2018-12-11T02:28:19.831Z,101713.96
2018-12-11T02:30:49.103Z,101701.42
2018-12-11T02:33:18.094Z,101701.84
2018-12-11T02:35:47.410Z,101709.23
2018-12-11T02:38:16.278Z,101706.74
2018-12-11T02:40:45.176Z,101715.80
2018-12-11T02:43:14.570Z,101717.94
2018-12-11T02:45:43.351Z,101721.86
2018-12-11T02:48:12.148Z,101726.61
2018-12-11T02:50:40.924Z,101723.30
2018-12-11T02:53:10.536Z,101715.88
2018-12-11T02:55:39.278Z,101720.59
2018-12-11T02:58:08.943Z,101718.86
2018-12-11T03:00:37.654Z,101717.56
2018-12-11T03:03:06.783Z,101718.00
2018-12-11T03:05:35.647Z,101726.61
2018-12-11T03:08:05.214Z,101723.16
2018-12-11T03:10:34.030Z,101718.81
2018-12-11T03:13:02.891Z,101715.31
2018-12-11T03:15:31.635Z,101711.37
2018-12-11T03:18:00.467Z,101715.59
2018-12-11T03:20:29.566Z,101706.01
2018-12-11T03:22:59.539Z,101697.77
2018-12-11T03:25:28.480Z,101689.97
2018-12-11T03:27:57.346Z,101691.20
2018-12-11T03:30:26.162Z,101693.31
2018-12-11T03:32:55.296Z,101692.02
2018-12-11T03:35:24.332Z,101700.64
2018-12-11T03:37:53.320Z,101700.73
2018-12-11T03:40:22.205Z,101715.28
2018-12-11T03:42:52.090Z,101715.28
2018-12-11T03:45:20.956Z,101707.92
2018-12-11T03:47:49.756Z,101704.47
2018-12-11T03:50:18.859Z,101698.91
2018-12-11T03:52:47.831Z,101701.61
2018-12-11T03:55:16.877Z,101709.47
2018-12-11T03:57:45.762Z,101707.84
2018-12-11T04:00:14.643Z,101701.95
2018-12-11T04:02:44.500Z,101703.34
2018-12-11T04:05:13.492Z,101708.56
2018-12-11T04:07:42.710Z,101705.20
2018-12-11T04:10:11.561Z,101703.59
2018-12-11T04:12:40.343Z,101705.36
2018-12-11T04:15:09.306Z,101706.36
2018-12-11T04:17:38.238Z,101710.72
2018-12-11T04:20:07.566Z,101704.73
2018-12-11T04:22:36.366Z,101710.47
2018-12-11T04:25:07.042Z,101710.95
2018-12-11T04:27:35.820Z,101709.70
2018-12-11T04:30:07.738Z,101711.04
2018-12-11T04:32:36.661Z,101718.75
2018-12-11T04:35:05.623Z,101719.65
2018-12-11T04:37:34.778Z,101722.58
2018-12-11T04:40:03.691Z,101717.36
2018-12-11T04:42:32.790Z,101722.44
2018-12-11T04:45:08.374Z,101717.28
2018-12-11T04:47:37.190Z,101716.50
2018-12-11T04:50:06.351Z,101715.65
2018-12-11T04:52:35.343Z,101716.59
2018-12-11T04:55:05.851Z,101725.21
2018-12-11T04:57:34.936Z,101714.44
2018-12-11T05:00:04.503Z,101727.41
2018-12-11T05:02:35.238Z,101719.23
2018-12-11T05:05:05.698Z,101720.48
2018-12-11T05:07:34.823Z,101722.71
2018-12-11T05:10:04.263Z,101711.08
2018-12-11T05:12:33.274Z,101706.78
2018-12-11T05:15:02.246Z,101709.31
2018-12-11T05:17:31.241Z,101704.11
2018-12-11T05:20:00.243Z,101703.67
2018-12-11T05:22:29.087Z,101713.92
2018-12-11T05:24:58.262Z,101708.37
2018-12-11T05:27:27.294Z,101713.44
2018-12-11T05:29:56.051Z,101712.11
2018-12-11T05:32:24.764Z,101707.84
2018-12-11T05:34:53.656Z,101709.99
2018-12-11T05:37:22.459Z,101708.22
2018-12-11T05:39:51.420Z,101705.22
2018-12-11T05:42:20.142Z,101701.77
2018-12-11T05:44:49.000Z,101708.89
2018-12-11T05:47:17.985Z,101710.29
2018-12-11T05:49:46.979Z,101707.41
2018-12-11T05:52:16.594Z,101704.41
2018-12-11T05:54:45.698Z,101714.45
2018-12-11T05:57:14.534Z,101711.20
2018-12-11T05:59:43.258Z,101713.88
2018-12-11T06:02:12.090Z,101708.84
2018-12-11T06:04:40.928Z,101708.08
2018-12-11T06:07:09.740Z,101709.02
2018-12-11T06:09:38.750Z,101705.28
2018-12-11T06:12:07.837Z,101708.25
2018-12-11T06:14:36.724Z,101704.47
2018-12-11T06:17:05.583Z,101717.91
2018-12-11T06:19:34.401Z,101717.61
2018-12-11T06:22:03.366Z,101720.66
2018-12-11T06:24:32.114Z,101717.26
2018-12-11T06:27:01.069Z,101717.73
2018-12-11T06:29:29.787Z,101722.43
2018-12-11T06:31:58.706Z,101727.59
2018-12-11T06:34:27.847Z,101731.03
2018-12-11T06:36:56.602Z,101728.41
2018-12-11T06:39:25.407Z,101734.27
2018-12-11T06:41:54.411Z,101737.11
2018-12-11T06:44:23.394Z,101734.95
2018-12-11T06:46:52.386Z,101736.41
2018-12-11T06:49:21.339Z,101739.48
2018-12-11T06:51:50.398Z,101742.66
2018-12-11T06:54:19.369Z,101750.11
2018-12-11T06:56:48.360Z,101748.94
2018-12-11T06:59:17.094Z,101745.61
2018-12-11T07:01:45.911Z,101743.50
2018-12-11T07:04:14.730Z,101744.41
2018-12-11T07:06:43.491Z,101742.34
2018-12-11T07:09:12.229Z,101738.51
2018-12-11T07:11:40.942Z,101736.83
2018-12-11T07:14:09.783Z,101737.38
2018-12-11T07:16:38.587Z,101742.07
2018-12-11T07:19:07.466Z,101746.45
2018-12-11T07:21:36.555Z,101753.73
2018-12-11T07:24:05.458Z,101757.67
2018-12-11T07:26:34.424Z,101755.05
2018-12-11T07:29:03.217Z,101755.91
2018-12-11T07:31:32.099Z,101750.79
2018-12-11T07:34:01.131Z,101743.95
2018-12-11T07:36:30.091Z,101752.63
2018-12-11T07:38:58.931Z,101765.57
2018-12-11T07:41:27.635Z,101769.44
2018-12-11T07:43:56.446Z,101774.61
2018-12-11T07:46:25.570Z,101777.26
2018-12-11T07:48:54.740Z,101770.38
2018-12-11T07:51:23.686Z,101765.64
2018-12-11T07:53:52.418Z,101768.70
2018-12-11T07:56:21.219Z,101769.13
2018-12-11T07:58:49.977Z,101770.80
2018-12-11T08:01:19.815Z,101775.07
2018-12-11T08:03:48.651Z,101770.27
2018-12-11T08:06:17.875Z,101769.84
2018-12-11T08:08:46.790Z,101776.71
2018-12-11T08:11:15.665Z,101780.12
2018-12-11T08:13:44.390Z,101768.98
2018-12-11T08:16:14.316Z,101781.41
2018-12-11T08:18:43.371Z,101779.69
2018-12-11T08:21:12.222Z,101782.23
2018-12-11T08:23:40.987Z,101779.22
2018-12-11T08:26:10.050Z,101786.10
2018-12-11T08:28:38.767Z,101786.11
2018-12-11T08:31:07.951Z,101785.24
2018-12-11T08:33:36.782Z,101786.53
2018-12-11T08:36:05.501Z,101786.06
2018-12-11T08:38:34.381Z,101787.75
2018-12-11T08:41:03.391Z,101796.70
2018-12-11T08:43:32.118Z,101789.83
2018-12-11T08:46:00.916Z,101794.55
2018-12-11T08:48:29.781Z,101803.01
2018-12-11T08:50:59.043Z,101793.55
2018-12-11T08:53:27.995Z,101802.55
2018-12-11T08:55:57.037Z,101798.63
2018-12-11T08:58:26.032Z,101810.16
2018-12-11T09:00:54.843Z,101813.10
2018-12-11T09:03:23.570Z,101809.58
2018-12-11T09:05:52.351Z,101809.03
2018-12-11T09:08:21.218Z,101807.23
2018-12-11T09:10:50.019Z,101806.64
2018-12-11T09:13:18.837Z,101806.94
2018-12-11T09:15:47.940Z,101811.08
2018-12-11T09:18:16.673Z,101814.23
2018-12-11T09:20:45.466Z,101814.88
2018-12-11T09:23:14.299Z,101810.73
2018-12-11T09:25:43.291Z,101809.20
2018-12-11T09:28:12.273Z,101810.78
2018-12-11T09:30:41.686Z,101808.93
2018-12-11T09:33:10.454Z,101814.86
2018-12-11T09:35:39.256Z,101816.02
2018-12-11T09:38:08.003Z,101818.98
2018-12-11T09:40:37.114Z,101822.84
2018-12-11T09:43:05.926Z,101823.18
2018-12-11T09:45:34.647Z,101825.30
2018-12-11T09:48:03.435Z,101826.02
2018-12-11T09:50:32.474Z,101816.09
2018-12-11T09:53:01.385Z,101819.87
2018-12-11T09:55:30.122Z,101815.52
2018-12-11T09:57:59.138Z,101815.45
2018-12-11T10:00:28.008Z,101812.78
2018-12-11T10:02:56.942Z,101816.08
2018-12-11T10:05:25.773Z,101805.95
2018-12-11T10:07:54.586Z,101807.03
2018-12-11T10:10:23.590Z,101797.44
2018-12-11T10:12:52.388Z,101807.06
2018-12-11T10:15:21.399Z,101808.56
2018-12-11T10:17:50.390Z,101808.34
2018-12-11T10:20:19.449Z,101809.53
2018-12-11T10:22:48.598Z,101819.30
2018-12-11T10:25:17.407Z,101810.11
2018-12-11T10:27:46.662Z,101818.64
2018-12-11T10:30:15.464Z,101816.97
2018-12-11T10:32:48.435Z,101811.73
2018-12-11T10:35:17.554Z,101818.69
2018-12-11T10:37:46.269Z,101815.14
2018-12-11T10:40:15.322Z,101818.69
2018-12-11T10:42:44.376Z,101806.17
2018-12-11T10:45:13.156Z,101806.48
2018-12-11T10:47:42.198Z,101810.70
2018-12-11T10:50:11.303Z,101808.47
2018-12-11T10:52:40.198Z,101811.72
2018-12-11T10:55:09.104Z,101813.33
2018-12-11T10:57:37.842Z,101810.35
2018-12-11T11:00:08.828Z,101808.25
2018-12-11T11:02:41.802Z,101812.03
2018-12-11T11:05:10.903Z,101810.73
2018-12-11T11:07:39.681Z,101813.27
2018-12-11T11:10:08.522Z,101804.09
2018-12-11T11:12:37.371Z,101802.72
2018-12-11T11:15:07.350Z,101801.79
2018-12-11T11:17:36.176Z,101805.98
2018-12-11T11:20:05.447Z,101808.42
2018-12-11T11:22:34.335Z,101803.60
2018-12-11T11:25:03.869Z,101802.23
2018-12-11T11:27:32.768Z,101806.93
2018-12-11T11:30:01.672Z,101808.97
2018-12-11T11:32:30.711Z,101807.98
2018-12-11T11:35:00.785Z,101810.58
2018-12-11T11:37:30.451Z,101799.72
2018-12-11T11:39:59.575Z,101798.80
2018-12-11T11:42:28.598Z,101796.94
2018-12-11T11:44:57.583Z,101798.59
2018-12-11T11:47:26.410Z,101793.74
2018-12-11T11:49:55.147Z,101795.03
2018-12-11T11:52:24.949Z,101791.27
2018-12-11T11:54:53.662Z,101795.08
2018-12-11T11:57:22.510Z,101797.37
2018-12-11T11:59:51.498Z,101796.73
2018-12-11T12:02:20.290Z,101796.10
2018-12-11T12:04:49.069Z,101799.80
2018-12-11T12:07:17.857Z,101802.22
2018-12-11T12:09:46.637Z,101804.23
2018-12-11T12:12:15.362Z,101800.70
2018-12-11T12:14:49.045Z,101810.88
2018-12-11T12:17:15.123Z,101810.27
2018-12-11T12:19:43.831Z,101798.08
2018-12-11T12:22:12.662Z,101804.01
2018-12-11T12:24:41.416Z,101797.44
2018-12-11T12:27:10.410Z,101800.53
2018-12-11T12:29:39.163Z,101798.79
2018-12-11T12:32:09.881Z,101802.63
2018-12-11T12:34:38.688Z,101813.37
2018-12-11T12:37:07.779Z,101809.00
2018-12-11T12:39:36.843Z,101810.98
2018-12-11T12:42:05.634Z,101812.20
2018-12-11T12:44:34.410Z,101806.02
2018-12-11T12:47:03.224Z,101810.63
2018-12-11T12:49:33.466Z,101807.09
2018-12-11T12:52:02.202Z,101806.67
2018-12-11T12:54:31.150Z,101804.63
2018-12-11T12:57:00.083Z,101797.79
2018-12-11T12:59:28.951Z,101801.30
2018-12-11T13:01:57.702Z,101797.11
2018-12-11T13:04:26.750Z,101798.44
2018-12-11T13:06:55.571Z,101800.16
2018-12-11T13:09:24.282Z,101800.89
2018-12-11T13:11:53.065Z,101793.60
2018-12-11T13:14:21.784Z,101796.55
2018-12-11T13:16:50.571Z,101793.74
2018-12-11T13:19:19.296Z,101801.47
2018-12-11T13:21:48.250Z,101793.30
2018-12-11T13:24:16.993Z,101806.08
2018-12-11T13:26:45.767Z,101803.00
2018-12-11T13:29:14.494Z,101805.44
2018-12-11T13:31:43.209Z,101805.38
2018-12-11T13:34:11.919Z,101809.12
2018-12-11T13:36:40.755Z,101808.27
2018-12-11T13:39:09.803Z,101807.59
2018-12-11T13:41:38.562Z,101810.86
2018-12-11T13:44:07.510Z,101802.48
2018-12-11T13:46:36.814Z,101807.11
2018-12-11T13:49:05.578Z,101803.28
2018-12-11T13:51:34.546Z,101807.67
2018-12-11T13:54:03.458Z,101803.78
2018-12-11T13:56:32.173Z,101805.14
2018-12-11T13:59:01.790Z,101810.33
2018-12-11T14:01:30.559Z,101809.77
2018-12-11T14:04:00.490Z,101804.20
2018-12-11T14:06:29.434Z,101805.44
2018-12-11T14:09:00.102Z,101805.08
2018-12-11T14:11:28.891Z,101806.29
2018-12-11T14:13:57.663Z,101807.97
2018-12-11T14:16:26.530Z,101814.25
2018-12-11T14:18:55.382Z,101817.77
2018-12-11T14:21:24.159Z,101810.69
2018-12-11T14:23:52.885Z,101818.19
2018-12-11T14:26:21.735Z,101814.38
2018-12-11T14:28:50.718Z,101815.80
2018-12-11T14:31:19.432Z,101812.05
2018-12-11T14:33:48.202Z,101813.89
2018-12-11T14:36:17.402Z,101820.20
2018-12-11T14:38:48.060Z,101819.55
2018-12-11T14:41:17.290Z,101827.45
2018-12-11T14:43:46.084Z,101816.36
2018-12-11T14:46:15.200Z,101817.30
2018-12-11T14:48:43.925Z,101822.23
2018-12-11T14:51:12.892Z,101820.26
2018-12-11T14:53:41.734Z,101818.34
2018-12-11T14:56:10.584Z,101819.65
2018-12-11T14:58:39.315Z,101819.40
2018-12-11T15:01:09.459Z,101825.60
2018-12-11T15:03:38.386Z,101829.11
2018-12-11T15:06:07.170Z,101824.97
2018-12-11T15:08:36.068Z,101823.25
2018-12-11T15:11:05.198Z,101824.23
2018-12-11T15:13:33.948Z,101822.09
2018-12-11T15:16:02.899Z,101818.30
2018-12-11T15:18:31.722Z,101818.80
2018-12-11T15:21:00.514Z,101818.38
2018-12-11T15:23:29.234Z,101819.30
2018-12-11T15:25:58.011Z,101819.37
2018-12-11T15:28:26.838Z,101817.69
2018-12-11T15:31:06.794Z,101825.47
2018-12-11T15:33:35.590Z,101819.91
2018-12-11T15:36:05.418Z,101822.14
2018-12-11T15:38:34.250Z,101819.24
2018-12-11T15:41:03.024Z,101825.83
2018-12-11T15:43:31.927Z,101832.00
2018-12-11T15:46:01.139Z,101831.56
2018-12-11T15:48:30.084Z,101831.09
2018-12-11T15:50:58.818Z,101832.92
2018-12-11T15:53:27.850Z,101830.83
2018-12-11T15:55:56.596Z,101827.43
2018-12-11T15:58:25.382Z,101833.16
2018-12-11T16:00:54.100Z,101837.61
2018-12-11T16:03:23.169Z,101840.69
2018-12-11T16:05:52.109Z,101836.29
2018-12-11T16:08:20.831Z,101844.14
2018-12-11T16:10:49.784Z,101841.91
2018-12-11T16:13:18.508Z,101843.38
2018-12-11T16:15:47.467Z,101841.84
2018-12-11T16:18:16.443Z,101840.20
2018-12-11T16:20:45.171Z,101849.30
2018-12-11T16:23:14.491Z,101839.42
2018-12-11T16:25:43.590Z,101840.33
2018-12-11T16:28:12.618Z,101847.78
2018-12-11T16:30:41.487Z,101856.90
2018-12-11T16:33:10.470Z,101854.47
2018-12-11T16:35:39.402Z,101853.66
2018-12-11T16:38:08.394Z,101853.29
2018-12-11T16:40:37.385Z,101855.93
2018-12-11T16:43:07.919Z,101858.95
2018-12-11T16:45:36.898Z,101859.49
2018-12-11T16:48:05.956Z,101863.33
2018-12-11T16:50:34.978Z,101859.44
2018-12-11T16:56:04.028Z,101868.90
2018-12-11T16:58:40.344Z,101868.03
2018-12-11T17:01:09.142Z,101873.11
2018-12-11T17:03:37.851Z,101874.83
2018-12-11T17:06:06.944Z,101870.52
2018-12-11T17:08:36.083Z,101876.93
2018-12-11T17:11:04.993Z,101877.31
2018-12-11T17:13:34.374Z,101878.60
2018-12-11T17:16:07.046Z,101883.80
2018-12-11T17:18:36.042Z,101886.71
2018-12-11T17:21:05.415Z,101890.11
2018-12-11T17:23:34.496Z,101891.39
2018-12-11T17:26:03.567Z,101888.91
2018-12-11T17:28:32.544Z,101889.41
2018-12-11T17:31:01.559Z,101890.59
2018-12-11T17:33:30.928Z,101894.37
2018-12-11T17:35:59.911Z,101890.59
2018-12-11T17:38:28.787Z,101897.89
2018-12-11T17:40:57.568Z,101897.50
2018-12-11T17:43:26.419Z,101896.64
2018-12-11T17:45:55.140Z,101892.75
2018-12-11T17:48:24.569Z,101894.09
2018-12-11T17:50:54.214Z,101892.38
2018-12-11T17:53:23.478Z,101891.08
2018-12-11T17:55:52.262Z,101895.13
2018-12-11T17:58:21.374Z,101897.72
2018-12-11T18:00:52.290Z,101889.52
2018-12-11T18:03:26.360Z,101895.98
2018-12-11T18:05:57.216Z,101899.81
2018-12-11T18:08:26.188Z,101899.44
2018-12-11T18:10:55.182Z,101904.67
2018-12-11T18:13:24.184Z,101901.66
2018-12-11T18:15:53.239Z,101901.70
2018-12-11T18:18:22.000Z,101908.24
2018-12-11T18:20:50.863Z,101903.06
2018-12-11T18:23:19.906Z,101906.95
2018-12-11T18:25:48.822Z,101913.03
2018-12-11T18:28:18.815Z,101907.91
2018-12-11T18:30:47.806Z,101908.93
2018-12-11T18:33:17.635Z,101914.55
2018-12-11T18:35:46.632Z,101919.05
2018-12-11T18:38:15.767Z,101910.00
2018-12-11T18:40:44.715Z,101914.37
2018-12-11T18:43:21.140Z,101910.97
2018-12-11T18:45:50.085Z,101917.92
2018-12-11T18:48:18.959Z,101914.22
2018-12-11T18:50:47.967Z,101920.27
2018-12-11T18:53:16.951Z,101919.02
2018-12-11T18:55:45.935Z,101920.70
2018-12-11T18:58:14.922Z,101923.38
2018-12-11T19:00:43.688Z,101925.88
2018-12-11T19:03:15.062Z,101927.98
2018-12-11T19:05:50.890Z,101928.45
2018-12-11T19:08:19.983Z,101924.20
2018-12-11T19:10:48.871Z,101930.30
2018-12-11T19:13:19.530Z,101931.73
2018-12-11T19:15:54.009Z,101934.89
2018-12-11T19:18:22.765Z,101940.16
2018-12-11T19:20:51.597Z,101936.67
2018-12-11T19:23:59.001Z,101939.39
2018-12-11T19:26:27.778Z,101933.73
2018-12-11T19:28:57.642Z,101935.86
2018-12-11T19:31:28.459Z,101941.94
2018-12-11T19:33:58.608Z,101939.39
2018-12-11T19:36:27.573Z,101938.48
2018-12-11T19:38:58.498Z,101936.72
2018-12-11T19:41:28.427Z,101937.28
2018-12-11T19:43:57.458Z,101936.28
2018-12-11T19:46:26.394Z,101935.84
2018-12-11T19:48:55.298Z,101934.21
2018-12-11T19:51:24.313Z,101942.84
2018-12-11T19:53:53.298Z,101941.26
2018-12-11T19:56:22.335Z,101938.80
2018-12-11T19:58:53.123Z,101934.06
2018-12-11T20:01:22.179Z,101931.48
2018-12-11T20:03:51.639Z,101928.08
2018-12-11T20:06:20.839Z,101935.45
2018-12-11T20:08:49.778Z,101932.99
2018-12-11T20:11:18.838Z,101933.52
2018-12-11T20:13:47.670Z,101935.77
2018-12-11T20:16:16.672Z,101939.27
2018-12-11T20:18:45.500Z,101946.64
2018-12-11T20:21:14.422Z,101947.94
2018-12-11T20:23:43.352Z,101947.55
2018-12-11T20:26:12.322Z,101947.20
2018-12-11T20:28:41.333Z,101944.66
2018-12-11T20:31:10.333Z,101946.51
2018-12-11T20:33:39.316Z,101955.99
2018-12-11T20:36:08.943Z,101956.12
2018-12-11T20:38:38.032Z,101956.20
2018-12-11T20:41:06.979Z,101958.78
2018-12-11T20:43:35.892Z,101957.14
2018-12-11T20:46:05.546Z,101949.86
2018-12-11T20:48:34.564Z,101952.92
2018-12-11T20:51:04.359Z,101955.93
2018-12-11T20:53:33.419Z,101960.24
2018-12-11T20:56:03.158Z,101963.73
2018-12-11T20:58:32.625Z,101959.89
2018-12-11T21:01:01.385Z,101961.69
2018-12-11T21:03:32.765Z,101957.03
2018-12-11T21:06:02.052Z,101964.91
2018-12-11T21:08:31.311Z,101957.70
2018-12-11T21:11:00.118Z,101960.39
2018-12-11T21:13:29.332Z,101954.47
2018-12-11T21:15:58.383Z,101963.98
2018-12-11T21:18:27.409Z,101961.05
2018-12-11T21:20:56.455Z,101964.17
2018-12-11T21:23:25.635Z,101958.28
2018-12-11T21:25:54.750Z,101963.13
2018-12-11T21:28:23.666Z,101970.52
2018-12-11T21:30:52.584Z,101971.80
2018-12-11T21:33:21.660Z,101971.31
2018-12-11T21:35:50.566Z,101971.73
2018-12-11T21:38:20.403Z,101977.37
2018-12-11T21:40:49.184Z,101984.72
2018-12-11T21:43:18.231Z,101986.51
2018-12-11T21:45:47.292Z,101989.26
2018-12-11T21:48:16.155Z,101981.58
2018-12-11T21:50:46.790Z,101982.08
2018-12-11T21:53:15.971Z,101970.45
2018-12-11T21:55:45.117Z,101969.98
2018-12-11T21:58:14.827Z,101970.82
2018-12-11T22:00:43.883Z,101972.11
2018-12-11T22:03:13.390Z,101974.23
2018-12-11T22:05:42.236Z,101966.95
2018-12-11T22:08:11.157Z,101971.74
2018-12-11T22:10:40.132Z,101971.34
2018-12-11T22:13:09.146Z,101977.00
2018-12-11T22:15:38.191Z,101968.50
2018-12-11T22:18:07.131Z,101976.27
2018-12-11T22:20:35.890Z,101980.60
2018-12-11T22:23:04.782Z,101984.94
2018-12-11T22:25:33.803Z,101991.39
2018-12-11T22:28:02.790Z,101989.23
2018-12-11T22:30:31.519Z,101986.69
2018-12-11T22:33:00.458Z,101986.23
2018-12-11T22:35:30.074Z,101984.48
2018-12-11T22:37:58.783Z,101987.02
2018-12-11T22:40:27.523Z,101983.98
2018-12-11T22:42:59.439Z,101980.91
2018-12-11T22:45:28.337Z,101985.21
2018-12-11T22:47:57.463Z,101992.00
2018-12-11T22:50:26.558Z,101983.33
2018-12-11T22:52:55.465Z,101982.87
2018-12-11T22:55:24.475Z,101981.52
2018-12-11T22:57:54.190Z,101987.97
2018-12-11T23:00:23.059Z,101986.21
2018-12-11T23:02:53.734Z,101995.68
2018-12-11T23:05:23.119Z,102004.75
2018-12-11T23:07:52.115Z,101999.77
2018-12-11T23:10:20.847Z,101989.55
2018-12-11T23:12:49.571Z,101998.12
2018-12-11T23:15:19.635Z,101993.32
2018-12-11T23:17:48.686Z,101995.50
2018-12-11T23:20:17.402Z,101995.50
2018-12-11T23:22:46.173Z,101997.66
2018-12-11T23:25:15.360Z,102001.56
2018-12-11T23:27:44.579Z,102003.74
2018-12-11T23:30:13.450Z,102009.39
2018-12-11T23:32:42.428Z,102009.08
2018-12-11T23:35:11.331Z,102010.00
2018-12-11T23:37:40.102Z,102006.65
2018-12-11T23:40:09.031Z,102007.97
2018-12-11T23:42:37.871Z,102008.45
2018-12-11T23:45:08.687Z,102009.80
2018-12-11T23:47:37.930Z,102012.41
2018-12-11T23:50:06.895Z,102016.77
2018-12-11T23:52:35.950Z,102016.33
2018-12-11T23:55:05.756Z,102000.88
2018-12-11T23:57:34.880Z,101999.59
